createdAt,value
2016-08-29T00:00:47.955Z,-49
2016-08-29T00:01:47.954Z,-50
2016-08-29T00:02:47.942Z,-50
2016-08-29T00:03:47.951Z,-50
2016-08-29T00:04:47.936Z,-50
2016-08-29T00:05:47.973Z,-50
2016-08-29T00:06:47.974Z,-51
2016-08-29T00:07:47.929Z,-52
2016-08-29T00:08:47.969Z,-53
2016-08-29T00:09:47.968Z,-52
2016-08-29T00:10:47.949Z,-52
2016-08-29T00:11:47.969Z,-50
2016-08-29T00:12:48.112Z,-49
2016-08-29T00:13:48.120Z,-50
2016-08-29T00:14:48.027Z,-48
2016-08-29T00:15:48.002Z,-50
2016-08-29T00:16:47.989Z,-50
2016-08-29T00:17:47.984Z,-51
2016-08-29T00:18:47.975Z,-50
2016-08-29T00:19:48.037Z,-50
2016-08-29T00:20:48.268Z,-50
2016-08-29T00:21:47.965Z,-52
2016-08-29T00:22:48.014Z,-51
2016-08-29T00:23:47.992Z,-51
2016-08-29T00:24:48.027Z,-50
2016-08-29T00:25:48.118Z,-50
2016-08-29T00:26:47.941Z,-50
2016-08-29T00:27:48.004Z,-51
2016-08-29T00:28:48.025Z,-51
2016-08-29T00:29:47.971Z,-51
2016-08-29T00:30:48.106Z,-51
2016-08-29T00:31:48.660Z,-49
2016-08-29T00:32:47.984Z,-51
2016-08-29T00:33:48.031Z,-50
2016-08-29T00:34:48.029Z,-51
2016-08-29T00:35:48.127Z,-50
2016-08-29T00:36:47.995Z,-51
2016-08-29T00:37:47.976Z,-50
2016-08-29T00:38:47.985Z,-50
2016-08-29T00:39:47.987Z,-51
2016-08-29T00:40:48.182Z,-50
2016-08-29T00:41:48.016Z,-52
2016-08-29T00:42:48.006Z,-50
2016-08-29T00:43:48.081Z,-51
2016-08-29T00:44:48.017Z,-50
2016-08-29T00:45:48.092Z,-51
2016-08-29T00:46:47.993Z,-50
2016-08-29T00:47:48.153Z,-49
2016-08-29T00:48:48.016Z,-47
2016-08-29T00:49:48.027Z,-50
2016-08-29T00:50:48.020Z,-51
2016-08-29T00:51:47.989Z,-49
2016-08-29T00:52:48.018Z,-49
2016-08-29T00:53:48.007Z,-49
2016-08-29T00:54:48.018Z,-50
2016-08-29T00:55:48.021Z,-50
2016-08-29T00:56:48.003Z,-50
2016-08-29T00:57:48.037Z,-51
2016-08-29T00:58:48.806Z,-50
2016-08-29T00:59:48.030Z,-52
2016-08-29T01:00:48.032Z,-50
2016-08-29T01:01:48.054Z,-51
2016-08-29T01:02:48.015Z,-51
2016-08-29T01:03:47.986Z,-51
2016-08-29T01:04:47.990Z,-51
2016-08-29T01:05:48.047Z,-50
2016-08-29T01:06:47.989Z,-51
2016-08-29T01:07:48.008Z,-51
2016-08-29T01:08:48.017Z,-50
2016-08-29T01:09:47.996Z,-50
2016-08-29T01:10:48.007Z,-49
2016-08-29T01:11:48.011Z,-50
2016-08-29T01:12:48.048Z,-51
2016-08-29T01:13:48.228Z,-50
2016-08-29T01:14:48.016Z,-50
2016-08-29T01:15:48.017Z,-50
2016-08-29T01:16:48.004Z,-47
2016-08-29T01:17:47.990Z,-51
2016-08-29T01:18:48.065Z,-50
2016-08-29T01:19:48.009Z,-51
2016-08-29T01:20:48.040Z,-51
2016-08-29T01:21:48.037Z,-51
2016-08-29T01:22:48.011Z,-50
2016-08-29T01:23:48.017Z,-49
2016-08-29T01:24:48.053Z,-50
2016-08-29T01:25:48.002Z,-50
2016-08-29T01:26:48.051Z,-50
2016-08-29T01:27:48.007Z,-50
2016-08-29T01:28:48.123Z,-49
2016-08-29T01:29:48.045Z,-49
2016-08-29T01:30:48.040Z,-49
2016-08-29T01:31:48.035Z,-49
2016-08-29T01:32:48.054Z,-49
2016-08-29T01:33:48.045Z,-50
2016-08-29T01:34:48.045Z,-50
2016-08-29T01:35:48.080Z,-49
2016-08-29T01:36:48.039Z,-49
2016-08-29T01:37:48.036Z,-49
2016-08-29T01:38:48.083Z,-49
2016-08-29T01:39:48.058Z,-52
2016-08-29T01:40:48.050Z,-50
2016-08-29T01:41:48.036Z,-51
2016-08-29T01:42:48.037Z,-50
2016-08-29T01:43:48.161Z,-51
2016-08-29T01:44:48.081Z,-51
2016-08-29T01:45:48.050Z,-50
2016-08-29T01:46:48.078Z,-50
2016-08-29T01:47:48.047Z,-51
2016-08-29T01:48:48.069Z,-50
2016-08-29T01:49:48.078Z,-51
2016-08-29T01:50:48.052Z,-50
2016-08-29T01:51:48.065Z,-50
2016-08-29T01:52:48.052Z,-50
2016-08-29T01:53:48.062Z,-49
2016-08-29T01:54:48.067Z,-52
2016-08-29T01:55:48.056Z,-50
2016-08-29T01:56:48.060Z,-49
2016-08-29T01:57:48.062Z,-50
2016-08-29T01:58:48.652Z,-49
2016-08-29T01:59:48.050Z,-48
2016-08-29T02:00:48.049Z,-48
2016-08-29T02:01:48.081Z,-49
2016-08-29T02:02:48.072Z,-48
2016-08-29T02:03:48.083Z,-50
2016-08-29T02:04:48.081Z,-49
2016-08-29T02:05:48.053Z,-49
2016-08-29T02:06:48.043Z,-49
2016-08-29T02:07:48.038Z,-49
2016-08-29T02:08:48.053Z,-49
2016-08-29T02:09:48.069Z,-49
2016-08-29T02:10:48.060Z,-48
2016-08-29T02:11:48.083Z,-49
2016-08-29T02:12:48.099Z,-49
2016-08-29T02:13:48.203Z,-49
2016-08-29T02:14:48.074Z,-49
2016-08-29T02:15:48.070Z,-49
2016-08-29T02:16:48.069Z,-50
2016-08-29T02:17:48.090Z,-51
2016-08-29T02:18:48.082Z,-49
2016-08-29T02:19:48.099Z,-51
2016-08-29T02:20:48.128Z,-51
2016-08-29T02:21:48.082Z,-50
2016-08-29T02:22:48.088Z,-50
2016-08-29T02:23:48.086Z,-52
2016-08-29T02:24:48.089Z,-49
2016-08-29T02:25:48.092Z,-51
2016-08-29T02:26:48.107Z,-49
2016-08-29T02:27:48.109Z,-50
2016-08-29T02:28:48.189Z,-50
2016-08-29T02:29:48.097Z,-51
2016-08-29T02:30:48.073Z,-51
2016-08-29T02:31:48.069Z,-51
2016-08-29T02:32:48.083Z,-51
2016-08-29T02:33:48.104Z,-48
2016-08-29T02:34:48.097Z,-49
2016-08-29T02:35:48.101Z,-49
2016-08-29T02:36:48.082Z,-49
2016-08-29T02:37:48.084Z,-49
2016-08-29T02:38:48.099Z,-50
2016-08-29T02:39:48.101Z,-50
2016-08-29T02:40:48.096Z,-49
2016-08-29T02:41:48.112Z,-49
2016-08-29T02:42:48.091Z,-49
2016-08-29T02:43:48.219Z,-49
2016-08-29T02:44:48.117Z,-50
2016-08-29T02:45:48.117Z,-49
2016-08-29T02:46:48.070Z,-49
2016-08-29T02:47:48.100Z,-49
2016-08-29T02:48:48.102Z,-49
2016-08-29T02:49:48.101Z,-49
2016-08-29T02:50:48.100Z,-48
2016-08-29T02:51:48.130Z,-49
2016-08-29T02:52:48.087Z,-50
2016-08-29T02:53:48.114Z,-50
2016-08-29T02:54:48.116Z,-50
2016-08-29T02:55:48.116Z,-50
2016-08-29T02:56:48.145Z,-49
2016-08-29T02:57:48.112Z,-49
2016-08-29T02:58:48.220Z,-50
2016-08-29T02:59:48.165Z,-51
2016-08-29T03:00:48.097Z,-51
2016-08-29T03:01:48.130Z,-51
2016-08-29T03:02:48.148Z,-50
2016-08-29T03:03:48.146Z,-50
2016-08-29T03:04:48.107Z,-51
2016-08-29T03:05:48.130Z,-50
2016-08-29T03:06:48.120Z,-50
2016-08-29T03:07:48.112Z,-50
2016-08-29T03:08:48.146Z,-50
2016-08-29T03:09:48.108Z,-50
2016-08-29T03:10:48.115Z,-49
2016-08-29T03:11:48.122Z,-49
2016-08-29T03:12:48.173Z,-50
2016-08-29T03:13:48.205Z,-49
2016-08-29T03:14:48.145Z,-49
2016-08-29T03:15:48.117Z,-48
2016-08-29T03:16:48.146Z,-49
2016-08-29T03:17:48.129Z,-49
2016-08-29T03:18:48.146Z,-49
2016-08-29T03:19:48.145Z,-49
2016-08-29T03:20:48.149Z,-49
2016-08-29T03:21:48.145Z,-48
2016-08-29T03:22:48.115Z,-49
2016-08-29T03:23:48.132Z,-49
2016-08-29T03:24:48.147Z,-49
2016-08-29T03:25:48.116Z,-51
2016-08-29T03:26:48.147Z,-50
2016-08-29T03:27:48.166Z,-49
2016-08-29T03:28:48.229Z,-49
2016-08-29T03:29:48.133Z,-48
2016-08-29T03:30:48.131Z,-51
2016-08-29T03:31:48.133Z,-49
2016-08-29T03:32:48.153Z,-49
2016-08-29T03:33:48.159Z,-49
2016-08-29T03:34:48.162Z,-50
2016-08-29T03:35:48.164Z,-47
2016-08-29T03:36:48.194Z,-51
2016-08-29T03:37:48.147Z,-50
2016-08-29T03:38:48.184Z,-50
2016-08-29T03:39:48.176Z,-50
2016-08-29T03:40:48.183Z,-50
2016-08-29T03:41:48.169Z,-50
2016-08-29T03:42:48.183Z,-50
2016-08-29T03:43:48.241Z,-51
2016-08-29T03:44:48.224Z,-49
2016-08-29T03:45:48.211Z,-49
2016-08-29T03:46:48.204Z,-49
2016-08-29T03:47:48.244Z,-50
2016-08-29T03:48:48.164Z,-51
2016-08-29T03:49:48.147Z,-50
2016-08-29T03:50:48.167Z,-50
2016-08-29T03:51:48.166Z,-51
2016-08-29T03:52:48.171Z,-50
2016-08-29T03:53:48.162Z,-51
2016-08-29T03:54:48.185Z,-51
2016-08-29T03:55:48.177Z,-50
2016-08-29T03:56:48.167Z,-50
2016-08-29T03:57:48.148Z,-50
2016-08-29T03:58:48.167Z,-50
2016-08-29T03:59:48.171Z,-50
2016-08-29T04:00:48.151Z,-50
2016-08-29T04:01:48.183Z,-50
2016-08-29T04:02:48.151Z,-50
2016-08-29T04:03:48.149Z,-50
2016-08-29T04:04:48.176Z,-49
2016-08-29T04:05:48.212Z,-50
2016-08-29T04:06:48.163Z,-50
2016-08-29T04:07:48.169Z,-50
2016-08-29T04:08:48.154Z,-49
2016-08-29T04:09:48.178Z,-49
2016-08-29T04:10:48.171Z,-48
2016-08-29T04:11:48.166Z,-49
2016-08-29T04:12:48.167Z,-50
2016-08-29T04:13:48.239Z,-49
2016-08-29T04:14:48.182Z,-49
2016-08-29T04:15:48.188Z,-49
2016-08-29T04:16:48.166Z,-49
2016-08-29T04:17:48.152Z,-50
2016-08-29T04:18:48.197Z,-49
2016-08-29T04:19:48.185Z,-49
2016-08-29T04:20:48.196Z,-49
2016-08-29T04:21:48.182Z,-49
2016-08-29T04:22:48.197Z,-48
2016-08-29T04:23:48.197Z,-48
2016-08-29T04:24:48.222Z,-49
2016-08-29T04:25:48.216Z,-47
2016-08-29T04:26:48.279Z,-49
2016-08-29T04:27:48.220Z,-49
2016-08-29T04:28:48.202Z,-49
2016-08-29T04:29:48.222Z,-49
2016-08-29T04:30:48.215Z,-49
2016-08-29T04:31:48.208Z,-49
2016-08-29T04:32:48.229Z,-49
2016-08-29T04:33:48.219Z,-49
2016-08-29T04:34:48.254Z,-51
2016-08-29T04:35:48.677Z,-51
2016-08-29T04:36:48.197Z,-51
2016-08-29T04:37:48.788Z,-49
2016-08-29T04:38:48.262Z,-49
2016-08-29T04:39:48.257Z,-50
2016-08-29T04:40:48.189Z,-49
2016-08-29T04:41:48.228Z,-50
2016-08-29T04:42:48.224Z,-49
2016-08-29T04:43:48.242Z,-50
2016-08-29T04:44:48.236Z,-49
2016-08-29T04:45:48.210Z,-49
2016-08-29T04:46:48.217Z,-49
2016-08-29T04:47:48.198Z,-49
2016-08-29T04:48:48.244Z,-49
2016-08-29T04:49:48.251Z,-50
2016-08-29T04:50:48.242Z,-49
2016-08-29T04:51:48.212Z,-47
2016-08-29T04:52:48.208Z,-46
2016-08-29T04:53:48.206Z,-49
2016-08-29T04:54:48.198Z,-49
2016-08-29T04:55:48.229Z,-46
2016-08-29T04:56:48.243Z,-49
2016-08-29T04:57:48.234Z,-46
2016-08-29T04:58:48.220Z,-49
2016-08-29T04:59:48.229Z,-49
2016-08-29T05:00:48.244Z,-49
2016-08-29T05:01:48.272Z,-49
2016-08-29T05:02:48.379Z,-49
2016-08-29T05:03:48.244Z,-51
2016-08-29T05:04:48.232Z,-47
2016-08-29T05:05:48.231Z,-50
2016-08-29T05:06:48.260Z,-51
2016-08-29T05:07:48.240Z,-50
2016-08-29T05:08:48.229Z,-49
2016-08-29T05:09:48.262Z,-49
2016-08-29T05:10:48.257Z,-51
2016-08-29T05:11:48.278Z,-50
2016-08-29T05:12:48.258Z,-50
2016-08-29T05:13:48.233Z,-50
2016-08-29T05:14:48.207Z,-50
2016-08-29T05:15:48.240Z,-50
2016-08-29T05:16:48.254Z,-51
2016-08-29T05:17:48.260Z,-51
2016-08-29T05:18:48.233Z,-51
2016-08-29T05:19:48.274Z,-50
2016-08-29T05:20:48.231Z,-49
2016-08-29T05:21:48.239Z,-49
2016-08-29T05:22:48.260Z,-49
2016-08-29T05:23:48.233Z,-49
2016-08-29T05:24:48.240Z,-49
2016-08-29T05:25:48.249Z,-49
2016-08-29T05:26:48.257Z,-49
2016-08-29T05:27:48.337Z,-49
2016-08-29T05:28:48.279Z,-49
2016-08-29T05:29:48.273Z,-47
2016-08-29T05:30:48.279Z,-49
2016-08-29T05:31:48.304Z,-48
2016-08-29T05:32:48.290Z,-49
2016-08-29T05:33:48.301Z,-46
2016-08-29T05:34:48.262Z,-49
2016-08-29T05:35:48.319Z,-50
2016-08-29T05:36:48.295Z,-50
2016-08-29T05:37:48.311Z,-51
2016-08-29T05:38:48.273Z,-49
2016-08-29T05:39:48.269Z,-49
2016-08-29T05:40:48.244Z,-49
2016-08-29T05:41:48.353Z,-49
2016-08-29T05:42:48.270Z,-49
2016-08-29T05:43:48.290Z,-49
2016-08-29T05:44:48.312Z,-50
2016-08-29T05:45:48.320Z,-50
2016-08-29T05:46:48.330Z,-51
2016-08-29T05:47:48.300Z,-49
2016-08-29T05:48:48.254Z,-49
2016-08-29T05:49:48.262Z,-49
2016-08-29T05:50:48.256Z,-49
2016-08-29T05:51:48.261Z,-49
2016-08-29T05:52:48.291Z,-52
2016-08-29T05:53:48.380Z,-52
2016-08-29T05:54:48.301Z,-50
2016-08-29T05:55:48.310Z,-50
2016-08-29T05:56:48.304Z,-49
2016-08-29T05:57:48.381Z,-49
2016-08-29T05:58:48.296Z,-49
2016-08-29T05:59:48.285Z,-49
2016-08-29T06:00:48.303Z,-50
2016-08-29T06:01:48.415Z,-49
2016-08-29T06:02:48.314Z,-49
2016-08-29T06:03:48.282Z,-51
2016-08-29T06:04:48.325Z,-52
2016-08-29T06:05:48.325Z,-49
2016-08-29T06:06:48.270Z,-51
2016-08-29T06:07:48.278Z,-47
2016-08-29T06:08:48.322Z,-50
2016-08-29T06:09:48.292Z,-50
2016-08-29T06:10:48.416Z,-50
2016-08-29T06:11:48.405Z,-50
2016-08-29T06:12:49.283Z,-47
2016-08-29T06:13:48.844Z,-51
2016-08-29T06:14:49.253Z,-51
2016-08-29T06:15:48.357Z,-51
2016-08-29T06:16:48.615Z,-52
2016-08-29T06:17:48.337Z,-50
2016-08-29T06:18:48.314Z,-49
2016-08-29T06:19:49.120Z,-52
2016-08-29T06:20:48.327Z,-53
2016-08-29T06:21:48.861Z,-52
2016-08-29T06:22:48.321Z,-53
2016-08-29T06:23:48.506Z,-51
2016-08-29T06:24:48.999Z,-52
2016-08-29T06:25:48.451Z,-51
2016-08-29T06:26:48.638Z,-51
2016-08-29T06:27:48.596Z,-51
2016-08-29T06:28:48.718Z,-48
2016-08-29T06:29:48.365Z,-52
2016-08-29T06:30:48.928Z,-51
2016-08-29T06:31:48.533Z,-51
2016-08-29T06:32:48.637Z,-50
2016-08-29T06:33:48.774Z,-53
2016-08-29T06:34:48.989Z,-54
2016-08-29T06:35:48.396Z,-52
2016-08-29T06:36:48.849Z,-51
2016-08-29T06:37:48.936Z,-54
2016-08-29T06:38:48.398Z,-52
2016-08-29T06:39:48.331Z,-52
2016-08-29T06:40:48.525Z,-51
2016-08-29T06:41:49.489Z,-50
2016-08-29T06:42:48.566Z,-51
2016-08-29T06:43:48.374Z,-52
2016-08-29T06:44:48.979Z,-52
2016-08-29T06:45:48.403Z,-52
2016-08-29T06:46:48.742Z,-53
2016-08-29T06:47:48.802Z,-52
2016-08-29T06:48:48.700Z,-51
2016-08-29T06:49:48.642Z,-50
2016-08-29T06:50:48.348Z,-50
2016-08-29T06:51:48.341Z,-51
2016-08-29T06:52:48.739Z,-51
2016-08-29T06:53:48.378Z,-51
2016-08-29T06:54:50.469Z,-49
2016-08-29T06:55:48.366Z,-50
2016-08-29T06:56:48.370Z,-50
2016-08-29T06:57:49.723Z,-53
2016-08-29T06:58:48.374Z,-51
2016-08-29T06:59:48.336Z,-52
2016-08-29T07:00:48.360Z,-54
2016-08-29T07:01:48.342Z,-52
2016-08-29T07:02:49.481Z,-52
2016-08-29T07:03:48.346Z,-51
2016-08-29T07:04:48.370Z,-52
2016-08-29T07:05:48.355Z,-50
2016-08-29T07:06:48.344Z,-53
2016-08-29T07:07:48.340Z,-53
2016-08-29T07:08:48.762Z,-53
2016-08-29T07:09:48.417Z,-53
2016-08-29T07:10:48.526Z,-51
2016-08-29T07:11:48.358Z,-50
2016-08-29T07:12:49.286Z,-51
2016-08-29T07:13:48.495Z,-50
2016-08-29T07:14:48.579Z,-54
2016-08-29T07:15:48.383Z,-53
2016-08-29T07:16:48.358Z,-52
2016-08-29T07:17:48.357Z,-52
2016-08-29T07:18:48.385Z,-52
2016-08-29T07:19:48.403Z,-51
2016-08-29T07:20:48.495Z,-52
2016-08-29T07:21:48.459Z,-52
2016-08-29T07:22:48.394Z,-52
2016-08-29T07:23:48.377Z,-52
2016-08-29T07:24:48.603Z,-50
2016-08-29T07:25:48.437Z,-51
2016-08-29T07:26:48.387Z,-50
2016-08-29T07:27:48.398Z,-49
2016-08-29T07:28:48.371Z,-50
2016-08-29T07:29:48.422Z,-50
2016-08-29T07:30:48.430Z,-50
2016-08-29T07:31:48.388Z,-51
2016-08-29T07:32:48.401Z,-50
2016-08-29T07:33:48.461Z,-50
2016-08-29T07:34:48.496Z,-49
2016-08-29T07:35:48.422Z,-51
2016-08-29T07:36:48.515Z,-51
2016-08-29T07:37:48.492Z,-52
2016-08-29T07:38:48.530Z,-52
2016-08-29T07:39:48.447Z,-51
2016-08-29T07:40:48.850Z,-50
2016-08-29T07:41:49.018Z,-52
2016-08-29T07:42:48.645Z,-51
2016-08-29T07:43:48.463Z,-51
2016-08-29T07:44:48.459Z,-50
2016-08-29T07:45:48.461Z,-50
2016-08-29T07:46:48.434Z,-51
2016-08-29T07:47:48.797Z,-52
2016-08-29T07:48:48.443Z,-49
2016-08-29T07:49:48.660Z,-50
2016-08-29T07:50:50.019Z,-49
2016-08-29T07:51:48.413Z,-51
2016-08-29T07:52:49.369Z,-51
2016-08-29T07:53:48.442Z,-51
2016-08-29T07:54:49.321Z,-50
2016-08-29T07:55:48.419Z,-49
2016-08-29T07:56:48.409Z,-50
2016-08-29T07:57:48.408Z,-50
2016-08-29T07:58:48.462Z,-51
2016-08-29T07:59:48.421Z,-52
2016-08-29T08:00:48.486Z,-53
2016-08-29T08:01:48.468Z,-50
2016-08-29T08:02:49.246Z,-51
2016-08-29T08:03:48.494Z,-52
2016-08-29T08:04:48.545Z,-52
2016-08-29T08:05:48.402Z,-51
2016-08-29T08:06:48.407Z,-51
2016-08-29T08:07:48.420Z,-51
2016-08-29T08:08:48.434Z,-51
2016-08-29T08:09:48.476Z,-51
2016-08-29T08:10:48.554Z,-51
2016-08-29T08:11:48.393Z,-52
2016-08-29T08:12:48.702Z,-51
2016-08-29T08:13:48.439Z,-52
2016-08-29T08:14:48.479Z,-51
2016-08-29T08:15:49.446Z,-51
2016-08-29T08:16:48.854Z,-53
2016-08-29T08:17:48.498Z,-52
2016-08-29T08:18:48.437Z,-51
2016-08-29T08:19:48.422Z,-53
2016-08-29T08:20:48.487Z,-50
2016-08-29T08:21:48.472Z,-50
2016-08-29T08:22:48.458Z,-50
2016-08-29T08:23:48.437Z,-49
2016-08-29T08:24:48.425Z,-51
2016-08-29T08:25:48.449Z,-50
2016-08-29T08:26:48.473Z,-49
2016-08-29T08:27:48.466Z,-49
2016-08-29T08:28:48.563Z,-51
2016-08-29T08:29:48.424Z,-51
2016-08-29T08:30:48.482Z,-51
2016-08-29T08:31:48.443Z,-51
2016-08-29T08:32:48.491Z,-51
2016-08-29T08:33:48.446Z,-52
2016-08-29T08:34:48.433Z,-52
2016-08-29T08:35:49.069Z,-53
2016-08-29T08:36:48.502Z,-52
2016-08-29T08:37:49.026Z,-51
2016-08-29T08:38:48.518Z,-51
2016-08-29T08:39:48.402Z,-51
2016-08-29T08:40:48.463Z,-52
2016-08-29T08:41:48.458Z,-52
2016-08-29T08:42:48.491Z,-51
2016-08-29T08:43:48.482Z,-51
2016-08-29T08:44:48.465Z,-50
2016-08-29T08:45:48.436Z,-50
2016-08-29T08:46:48.435Z,-50
2016-08-29T08:47:48.468Z,-50
2016-08-29T08:48:48.503Z,-50
2016-08-29T08:49:48.451Z,-50
2016-08-29T08:50:48.428Z,-50
2016-08-29T08:51:48.449Z,-50
2016-08-29T08:52:48.450Z,-50
2016-08-29T08:53:48.490Z,-50
2016-08-29T08:54:48.469Z,-50
2016-08-29T08:55:48.463Z,-50
2016-08-29T08:56:48.486Z,-50
2016-08-29T08:57:48.481Z,-51
2016-08-29T08:58:48.504Z,-51
2016-08-29T08:59:48.533Z,-50
2016-08-29T09:00:48.544Z,-51
2016-08-29T09:01:48.436Z,-51
2016-08-29T09:02:48.511Z,-50
2016-08-29T09:03:48.499Z,-50
2016-08-29T09:04:48.460Z,-50
2016-08-29T09:05:48.484Z,-49
2016-08-29T09:06:48.487Z,-50
2016-08-29T09:07:48.472Z,-51
2016-08-29T09:08:48.491Z,-50
2016-08-29T09:09:48.468Z,-49
2016-08-29T09:10:48.482Z,-51
2016-08-29T09:11:48.517Z,-51
2016-08-29T09:12:48.497Z,-51
2016-08-29T09:13:48.554Z,-51
2016-08-29T09:14:48.503Z,-50
2016-08-29T09:15:48.501Z,-50
2016-08-29T09:16:48.606Z,-50
2016-08-29T09:17:48.481Z,-49
2016-08-29T09:18:48.511Z,-52
2016-08-29T09:19:48.499Z,-51
2016-08-29T09:20:48.519Z,-50
2016-08-29T09:21:48.513Z,-50
2016-08-29T09:22:48.494Z,-50
2016-08-29T09:23:48.455Z,-50
2016-08-29T09:24:48.506Z,-50
2016-08-29T09:25:48.528Z,-49
2016-08-29T09:26:48.486Z,-50
2016-08-29T09:27:48.522Z,-50
2016-08-29T09:28:48.453Z,-50
2016-08-29T09:29:48.496Z,-50
2016-08-29T09:30:48.561Z,-51
2016-08-29T09:31:48.548Z,-51
2016-08-29T09:32:48.530Z,-50
2016-08-29T09:33:48.521Z,-50
2016-08-29T09:34:48.512Z,-49
2016-08-29T09:35:48.515Z,-49
2016-08-29T09:36:48.513Z,-52
2016-08-29T09:37:48.552Z,-52
2016-08-29T09:38:48.556Z,-52
2016-08-29T09:39:48.532Z,-51
2016-08-29T09:40:48.521Z,-53
2016-08-29T09:41:48.529Z,-53
2016-08-29T09:42:48.512Z,-52
2016-08-29T09:43:48.541Z,-52
2016-08-29T09:44:48.548Z,-54
2016-08-29T09:45:48.543Z,-52
2016-08-29T09:46:48.517Z,-52
2016-08-29T09:47:48.558Z,-51
2016-08-29T09:48:48.531Z,-52
2016-08-29T09:49:48.527Z,-53
2016-08-29T09:50:48.576Z,-52
2016-08-29T09:51:48.555Z,-52
2016-08-29T09:52:48.514Z,-53
2016-08-29T09:53:48.515Z,-53
2016-08-29T09:54:48.530Z,-52
2016-08-29T09:55:48.555Z,-52
2016-08-29T09:56:48.514Z,-54
2016-08-29T09:57:49.194Z,-51
2016-08-29T09:58:48.495Z,-52
2016-08-29T09:59:48.523Z,-52
2016-08-29T10:00:49.216Z,-52
2016-08-29T10:01:48.560Z,-52
2016-08-29T10:02:48.543Z,-52
2016-08-29T10:03:48.906Z,-52
2016-08-29T10:04:48.517Z,-52
2016-08-29T10:05:48.546Z,-51
2016-08-29T10:06:48.643Z,-50
2016-08-29T10:07:48.581Z,-51
2016-08-29T10:08:48.588Z,-49
2016-08-29T10:09:48.607Z,-53
2016-08-29T10:10:48.540Z,-50
2016-08-29T10:11:48.608Z,-53
2016-08-29T10:12:48.632Z,-51
2016-08-29T10:13:48.547Z,-51
2016-08-29T10:14:48.559Z,-52
2016-08-29T10:15:48.605Z,-52
2016-08-29T10:16:48.594Z,-51
2016-08-29T10:17:48.547Z,-52
2016-08-29T10:18:48.625Z,-53
2016-08-29T10:19:48.556Z,-53
2016-08-29T10:20:48.683Z,-53
2016-08-29T10:21:48.619Z,-51
2016-08-29T10:22:48.590Z,-52
2016-08-29T10:23:48.577Z,-53
2016-08-29T10:24:48.547Z,-51
2016-08-29T10:25:48.636Z,-52
2016-08-29T10:26:48.589Z,-52
2016-08-29T10:27:48.723Z,-51
2016-08-29T10:28:48.698Z,-52
2016-08-29T10:29:48.653Z,-52
2016-08-29T10:30:48.580Z,-52
2016-08-29T10:31:48.590Z,-52
2016-08-29T10:32:48.651Z,-52
2016-08-29T10:33:48.746Z,-52
2016-08-29T10:34:48.875Z,-53
2016-08-29T10:35:48.659Z,-52
2016-08-29T10:36:48.561Z,-51
2016-08-29T10:37:48.581Z,-52
2016-08-29T10:38:48.606Z,-51
2016-08-29T10:39:49.493Z,-54
2016-08-29T10:40:48.690Z,-53
2016-08-29T10:41:48.595Z,-52
2016-08-29T10:42:48.580Z,-53
2016-08-29T10:43:48.649Z,-53
2016-08-29T10:44:48.567Z,-52
2016-08-29T10:45:49.300Z,-54
2016-08-29T10:46:48.629Z,-52
2016-08-29T10:47:48.649Z,-50
2016-08-29T10:48:48.578Z,-52
2016-08-29T10:49:48.689Z,-52
2016-08-29T10:50:48.565Z,-52
2016-08-29T10:51:48.589Z,-52
2016-08-29T10:52:48.595Z,-52
2016-08-29T10:53:48.560Z,-52
2016-08-29T10:54:48.639Z,-51
2016-08-29T10:55:48.675Z,-52
2016-08-29T10:56:48.609Z,-53
2016-08-29T10:57:48.706Z,-52
2016-08-29T10:58:49.361Z,-52
2016-08-29T10:59:48.595Z,-52
2016-08-29T11:00:50.288Z,-52
2016-08-29T11:01:48.669Z,-53
2016-08-29T11:02:48.592Z,-50
2016-08-29T11:03:48.608Z,-52
2016-08-29T11:04:48.639Z,-53
2016-08-29T11:05:48.668Z,-52
2016-08-29T11:06:48.619Z,-54
2016-08-29T11:07:48.677Z,-53
2016-08-29T11:08:48.742Z,-54
2016-08-29T11:09:49.033Z,-51
2016-08-29T11:10:49.692Z,-52
2016-08-29T11:11:48.715Z,-51
2016-08-29T11:12:48.644Z,-52
2016-08-29T11:13:49.701Z,-52
2016-08-29T11:14:48.865Z,-51
2016-08-29T11:15:49.349Z,-52
2016-08-29T11:16:48.626Z,-52
2016-08-29T11:17:48.896Z,-53
2016-08-29T11:18:49.424Z,-52
2016-08-29T11:19:49.044Z,-51
2016-08-29T11:20:48.728Z,-50
2016-08-29T11:21:48.977Z,-51
2016-08-29T11:22:49.622Z,-51
2016-08-29T11:23:48.681Z,-50
2016-08-29T11:24:48.646Z,-50
2016-08-29T11:25:49.048Z,-51
2016-08-29T11:26:48.644Z,-51
2016-08-29T11:27:48.966Z,-50
2016-08-29T11:28:48.683Z,-51
2016-08-29T11:29:48.687Z,-50
2016-08-29T11:30:48.666Z,-51
2016-08-29T11:31:48.744Z,-50
2016-08-29T11:32:48.677Z,-51
2016-08-29T11:33:48.761Z,-49
2016-08-29T11:34:48.700Z,-47
2016-08-29T11:35:48.750Z,-52
2016-08-29T11:36:48.764Z,-53
2016-08-29T11:37:48.660Z,-52
2016-08-29T11:38:48.718Z,-51
2016-08-29T11:39:48.675Z,-51
2016-08-29T11:40:48.670Z,-53
2016-08-29T11:41:48.658Z,-53
2016-08-29T11:42:48.720Z,-52
2016-08-29T11:43:48.652Z,-50
2016-08-29T11:44:48.646Z,-51
2016-08-29T11:45:48.688Z,-52
2016-08-29T11:46:48.707Z,-52
2016-08-29T11:47:48.687Z,-53
2016-08-29T11:48:48.704Z,-51
2016-08-29T11:49:48.709Z,-51
2016-08-29T11:50:48.761Z,-52
2016-08-29T11:51:48.673Z,-51
2016-08-29T11:52:48.749Z,-53
2016-08-29T11:53:48.677Z,-51
2016-08-29T11:54:48.673Z,-51
2016-08-29T11:55:48.668Z,-49
2016-08-29T11:56:48.698Z,-53
2016-08-29T11:57:48.655Z,-51
2016-08-29T11:58:48.688Z,-52
2016-08-29T11:59:49.372Z,-52
2016-08-29T12:00:48.642Z,-52
2016-08-29T12:01:48.692Z,-51
2016-08-29T12:02:48.697Z,-52
2016-08-29T12:03:48.659Z,-51
2016-08-29T12:04:48.685Z,-52
2016-08-29T12:05:48.630Z,-51
2016-08-29T12:06:48.708Z,-51
2016-08-29T12:07:48.705Z,-54
2016-08-29T12:08:48.654Z,-51
2016-08-29T12:09:48.626Z,-50
2016-08-29T12:10:48.663Z,-53
2016-08-29T12:11:48.700Z,-52
2016-08-29T12:12:48.734Z,-51
2016-08-29T12:13:48.689Z,-52
2016-08-29T12:14:48.677Z,-51
2016-08-29T12:15:48.638Z,-52
2016-08-29T12:16:48.660Z,-52
2016-08-29T12:17:48.683Z,-53
2016-08-29T12:18:48.673Z,-53
2016-08-29T12:19:48.687Z,-53
2016-08-29T12:20:48.715Z,-52
2016-08-29T12:21:48.650Z,-51
2016-08-29T12:22:48.688Z,-52
2016-08-29T12:23:48.691Z,-52
2016-08-29T12:24:48.722Z,-53
2016-08-29T12:25:48.721Z,-53
2016-08-29T12:26:48.680Z,-53
2016-08-29T12:27:48.662Z,-52
2016-08-29T12:28:48.702Z,-52
2016-08-29T12:29:48.685Z,-52
2016-08-29T12:30:48.657Z,-51
2016-08-29T12:31:48.673Z,-53
2016-08-29T12:32:48.697Z,-51
2016-08-29T12:33:48.731Z,-52
2016-08-29T12:34:48.752Z,-52
2016-08-29T12:35:48.734Z,-52
2016-08-29T12:36:48.794Z,-51
2016-08-29T12:37:48.722Z,-52
2016-08-29T12:38:48.775Z,-51
2016-08-29T12:39:48.678Z,-51
2016-08-29T12:40:48.700Z,-52
2016-08-29T12:41:48.718Z,-51
2016-08-29T12:42:48.793Z,-52
2016-08-29T12:43:48.765Z,-52
2016-08-29T12:44:48.714Z,-52
2016-08-29T12:45:48.747Z,-52
2016-08-29T12:46:48.737Z,-52
2016-08-29T12:47:48.746Z,-52
2016-08-29T12:48:48.737Z,-51
2016-08-29T12:49:48.732Z,-51
2016-08-29T12:50:48.965Z,-53
2016-08-29T12:51:49.060Z,-51
2016-08-29T12:52:49.729Z,-53
2016-08-29T12:53:49.052Z,-53
2016-08-29T12:54:49.056Z,-52
2016-08-29T12:55:48.741Z,-52
2016-08-29T12:56:48.729Z,-53
2016-08-29T12:57:48.767Z,-53
2016-08-29T12:58:48.753Z,-53
2016-08-29T12:59:48.744Z,-52
2016-08-29T13:00:48.766Z,-50
2016-08-29T13:01:48.754Z,-52
2016-08-29T13:02:48.724Z,-52
2016-08-29T13:03:48.753Z,-49
2016-08-29T13:04:48.830Z,-51
2016-08-29T13:05:48.848Z,-52
2016-08-29T13:06:48.766Z,-51
2016-08-29T13:07:48.799Z,-52
2016-08-29T13:08:48.844Z,-50
2016-08-29T13:09:48.887Z,-53
2016-08-29T13:10:48.805Z,-52
2016-08-29T13:11:49.072Z,-53
2016-08-29T13:12:48.957Z,-52
2016-08-29T13:13:48.929Z,-50
2016-08-29T13:14:48.798Z,-54
2016-08-29T13:15:48.920Z,-54
2016-08-29T13:16:48.785Z,-54
2016-08-29T13:17:48.847Z,-53
2016-08-29T13:18:48.755Z,-55
2016-08-29T13:19:48.922Z,-54
2016-08-29T13:20:48.814Z,-54
2016-08-29T13:21:48.822Z,-51
2016-08-29T13:22:48.806Z,-51
2016-08-29T13:23:48.867Z,-49
2016-08-29T13:24:48.874Z,-54
2016-08-29T13:25:48.760Z,-51
2016-08-29T13:26:48.807Z,-52
2016-08-29T13:27:48.773Z,-51
2016-08-29T13:28:48.767Z,-52
2016-08-29T13:29:48.773Z,-53
2016-08-29T13:30:48.804Z,-52
2016-08-29T13:31:48.763Z,-52
2016-08-29T13:32:48.876Z,-52
2016-08-29T13:33:48.785Z,-52
2016-08-29T13:34:48.763Z,-51
2016-08-29T13:35:48.825Z,-52
2016-08-29T13:36:48.771Z,-54
2016-08-29T13:37:49.683Z,-50
2016-08-29T13:38:48.785Z,-50
2016-08-29T13:39:48.762Z,-51
2016-08-29T13:40:49.276Z,-52
2016-08-29T13:41:48.828Z,-51
2016-08-29T13:42:48.828Z,-52
2016-08-29T13:43:49.508Z,-51
2016-08-29T13:44:48.753Z,-50
2016-08-29T13:45:48.966Z,-52
2016-08-29T13:46:49.764Z,-48